createdAt,value
2023-01-29T00:02:19.857Z,76.57
2023-01-29T00:04:47.386Z,77.27
2023-01-29T00:07:14.676Z,76.92
2023-01-29T00:09:41.931Z,75.77
2023-01-29T00:12:09.129Z,77.80
2023-01-29T00:14:36.734Z,77.90
2023-01-29T00:17:04.305Z,78.36
2023-01-29T00:19:31.878Z,79.14
2023-01-29T00:21:59.177Z,79.70
2023-01-29T00:24:26.548Z,78.18
2023-01-29T00:26:54.031Z,76.95
2023-01-29T00:29:22.158Z,76.09
2023-01-29T00:31:50.049Z,76.80
2023-01-29T00:34:17.686Z,77.04
2023-01-29T00:36:45.728Z,77.43
2023-01-29T00:39:13.516Z,76.61
2023-01-29T00:41:59.344Z,77.54
2023-01-29T00:44:45.524Z,78.34
2023-01-29T00:47:45.397Z,79.14
2023-01-29T00:50:13.367Z,78.71
2023-01-29T00:52:41.358Z,78.94
2023-01-29T00:55:11.703Z,77.71
2023-01-29T00:57:39.431Z,77.91
2023-01-29T01:00:10.542Z,77.32
2023-01-29T01:02:56.814Z,77.38
2023-01-29T01:05:24.685Z,77.32
2023-01-29T01:07:54.708Z,76.16
2023-01-29T01:10:24.613Z,74.07
2023-01-29T01:12:56.474Z,73.88
2023-01-29T01:15:28.481Z,75.66
2023-01-29T01:17:59.098Z,75.81
2023-01-29T01:20:29.445Z,75.14
2023-01-29T01:22:57.292Z,76.10
2023-01-29T01:25:27.193Z,76.63
2023-01-29T01:27:57.408Z,75.94
2023-01-29T01:30:26.688Z,76.74
2023-01-29T01:32:54.971Z,77.23
2023-01-29T01:35:22.502Z,78.04
2023-01-29T01:37:49.816Z,78.49
2023-01-29T01:40:20.302Z,78.77
2023-01-29T01:42:53.176Z,78.26
2023-01-29T01:45:34.746Z,78.27
2023-01-29T01:48:02.307Z,76.53
2023-01-29T01:50:39.901Z,77.57
2023-01-29T01:53:11.528Z,77.44
2023-01-29T01:55:44.677Z,79.15
2023-01-29T01:58:19.567Z,78.53
2023-01-29T02:00:48.005Z,79.48
2023-01-29T02:03:35.410Z,80.11
2023-01-29T02:06:21.844Z,79.38
2023-01-29T02:09:29.899Z,78.49
2023-01-29T02:11:57.472Z,77.44
2023-01-29T02:14:25.535Z,75.92
2023-01-29T02:16:53.587Z,76.54
2023-01-29T02:20:02.805Z,76.38
2023-01-29T02:22:48.370Z,76.72
2023-01-29T02:25:59.392Z,77.82
2023-01-29T02:28:57.916Z,78.79
2023-01-29T02:31:28.242Z,79.50
2023-01-29T02:34:18.733Z,77.74
2023-01-29T02:37:00.117Z,76.47
2023-01-29T02:39:36.525Z,77.36
2023-01-29T02:42:16.803Z,76.06
2023-01-29T02:44:55.427Z,76.32
2023-01-29T02:47:32.623Z,76.26
2023-01-29T02:50:00.248Z,75.36
2023-01-29T02:52:38.710Z,75.73
2023-01-29T02:55:30.009Z,75.50
2023-01-29T02:58:04.436Z,75.64
2023-01-29T03:00:38.709Z,75.68
2023-01-29T03:03:17.350Z,75.72
2023-01-29T03:06:02.347Z,76.23
2023-01-29T03:08:43.362Z,76.79
2023-01-29T03:11:15.341Z,75.89
2023-01-29T03:13:46.589Z,76.67
2023-01-29T03:16:19.470Z,77.37
2023-01-29T03:19:11.067Z,74.96
2023-01-29T03:21:51.683Z,74.71
2023-01-29T03:24:48.864Z,75.11
2023-01-29T03:27:39.928Z,74.30
2023-01-29T03:30:31.340Z,74.12
2023-01-29T03:33:11.599Z,72.55
2023-01-29T03:35:50.210Z,73.08
2023-01-29T03:38:18.045Z,74.98
2023-01-29T03:40:53.129Z,74.87
2023-01-29T03:43:29.273Z,74.11
2023-01-29T03:46:05.215Z,73.70
2023-01-29T03:48:37.550Z,72.71
2023-01-29T03:51:34.551Z,72.73
2023-01-29T03:54:43.530Z,72.94
2023-01-29T03:57:22.418Z,72.55
2023-01-29T03:59:58.001Z,72.22
2023-01-29T04:02:57.608Z,73.03
2023-01-29T04:05:28.216Z,72.11
2023-01-29T04:08:14.640Z,72.17
2023-01-29T04:10:45.332Z,73.48
2023-01-29T04:13:16.101Z,73.87
2023-01-29T04:15:56.991Z,74.06
2023-01-29T04:18:48.951Z,74.92
2023-01-29T04:21:17.787Z,72.59
2023-01-29T04:23:45.175Z,72.70
2023-01-29T04:26:44.943Z,73.24
2023-01-29T04:29:39.552Z,75.06
2023-01-29T04:32:13.528Z,74.75
2023-01-29T04:34:57.719Z,73.21
2023-01-29T04:37:50.178Z,74.73
2023-01-29T04:40:27.165Z,72.90
2023-01-29T04:43:08.620Z,73.27
2023-01-29T04:45:59.629Z,74.26
2023-01-29T04:48:37.766Z,74.24
2023-01-29T04:51:15.775Z,73.76
2023-01-29T04:53:52.712Z,74.40
2023-01-29T04:56:29.681Z,75.60
2023-01-29T04:59:10.048Z,74.62
2023-01-29T05:01:39.301Z,72.39
2023-01-29T05:04:12.124Z,73.60
2023-01-29T05:06:40.519Z,73.56
2023-01-29T05:09:09.818Z,73.55
2023-01-29T05:11:37.799Z,74.15
2023-01-29T05:14:10.083Z,75.25
2023-01-29T05:16:46.232Z,75.54
2023-01-29T05:19:17.038Z,74.10
2023-01-29T05:21:47.352Z,74.71
2023-01-29T05:24:16.387Z,75.27
2023-01-29T05:27:05.459Z,74.80
2023-01-29T05:29:33.217Z,73.75
2023-01-29T05:32:01.126Z,72.40
2023-01-29T05:34:28.709Z,72.00
2023-01-29T05:36:56.079Z,70.34
2023-01-29T05:39:23.356Z,70.30
2023-01-29T05:41:50.692Z,71.32
2023-01-29T05:44:18.039Z,71.84
2023-01-29T05:46:46.225Z,71.64
2023-01-29T05:49:13.658Z,71.86
2023-01-29T05:51:40.888Z,71.90
2023-01-29T05:54:08.316Z,72.02
2023-01-29T05:56:35.688Z,73.01
2023-01-29T05:59:03.180Z,72.65
2023-01-29T06:01:30.490Z,72.87
2023-01-29T06:03:57.796Z,73.40
2023-01-29T06:06:25.037Z,73.23
2023-01-29T06:08:52.489Z,73.28
2023-01-29T06:11:20.685Z,73.93
2023-01-29T06:13:48.284Z,73.51
2023-01-29T06:16:15.982Z,71.86
2023-01-29T06:18:43.514Z,72.41
2023-01-29T06:21:12.349Z,72.50
2023-01-29T06:23:40.272Z,73.38
2023-01-29T06:26:11.724Z,72.92
2023-01-29T06:28:39.779Z,71.82
2023-01-29T06:31:21.937Z,72.81
2023-01-29T06:33:51.517Z,72.13
2023-01-29T06:36:18.912Z,72.58
2023-01-29T06:38:47.377Z,73.38
2023-01-29T06:41:18.228Z,74.26
2023-01-29T06:43:46.685Z,74.91
2023-01-29T06:46:14.339Z,75.46
2023-01-29T06:48:41.985Z,75.39
2023-01-29T06:51:10.671Z,76.08
2023-01-29T06:53:39.368Z,76.51
2023-01-29T06:56:07.926Z,77.03
2023-01-29T06:58:38.888Z,76.12
2023-01-29T07:01:15.507Z,76.29
2023-01-29T07:03:52.942Z,76.06
2023-01-29T07:06:20.681Z,76.64
2023-01-29T07:08:48.052Z,76.09
2023-01-29T07:11:15.392Z,75.97
2023-01-29T07:13:42.738Z,77.07
2023-01-29T07:16:10.213Z,76.79
2023-01-29T07:18:37.833Z,76.73
2023-01-29T07:21:06.613Z,76.86
2023-01-29T07:23:35.517Z,76.57
2023-01-29T07:26:06.522Z,77.19
2023-01-29T07:28:38.166Z,76.64
2023-01-29T07:31:06.655Z,77.36
2023-01-29T07:33:35.681Z,77.41
2023-01-29T07:36:07.301Z,77.91
2023-01-29T07:38:34.785Z,77.59
2023-01-29T07:41:03.247Z,78.00
2023-01-29T07:43:31.323Z,78.78
2023-01-29T07:46:03.636Z,78.57
2023-01-29T07:48:31.293Z,78.09
2023-01-29T07:50:59.326Z,78.36
2023-01-29T07:53:28.148Z,78.20
2023-01-29T07:55:55.882Z,78.46
2023-01-29T07:58:23.341Z,77.78
2023-01-29T08:00:50.728Z,78.23
2023-01-29T08:03:20.308Z,77.92
2023-01-29T08:05:48.344Z,77.63
2023-01-29T08:08:16.099Z,78.07
2023-01-29T08:10:43.623Z,76.37
2023-01-29T08:13:11.311Z,76.81
2023-01-29T08:15:39.428Z,76.65
2023-01-29T08:18:07.013Z,76.85
2023-01-29T08:20:34.405Z,77.51
2023-01-29T08:23:04.628Z,77.61
2023-01-29T08:25:32.642Z,78.26
2023-01-29T08:28:01.443Z,76.38
2023-01-29T08:30:31.533Z,76.99
2023-01-29T08:32:59.503Z,77.13
2023-01-29T08:35:27.493Z,76.70
2023-01-29T08:37:55.836Z,76.19
2023-01-29T08:40:23.395Z,76.78
2023-01-29T08:42:51.006Z,77.07
2023-01-29T08:45:18.395Z,77.00
2023-01-29T08:47:47.414Z,77.71
2023-01-29T08:50:15.787Z,77.57
2023-01-29T08:52:44.300Z,77.61
2023-01-29T08:55:12.444Z,77.84
2023-01-29T08:57:40.141Z,77.32
2023-01-29T09:00:10.384Z,77.29
2023-01-29T09:02:38.049Z,76.58
2023-01-29T09:05:06.148Z,76.82
2023-01-29T09:07:33.797Z,76.31
2023-01-29T09:10:01.652Z,75.31
2023-01-29T09:12:29.284Z,76.07
2023-01-29T09:14:56.762Z,76.07
2023-01-29T09:17:39.792Z,76.69
2023-01-29T09:20:07.965Z,76.65
2023-01-29T09:22:35.655Z,76.22
2023-01-29T09:25:03.963Z,75.95
2023-01-29T09:27:31.461Z,75.24
2023-01-29T09:29:59.167Z,75.16
2023-01-29T09:32:49.652Z,75.79
2023-01-29T09:35:14.622Z,75.33
2023-01-29T09:37:42.231Z,75.56
2023-01-29T09:40:26.172Z,75.30
2023-01-29T09:43:30.367Z,74.82
2023-01-29T09:46:28.599Z,75.04
2023-01-29T09:49:06.436Z,75.58
2023-01-29T09:51:43.723Z,75.18
2023-01-29T09:54:16.874Z,75.36
2023-01-29T09:56:47.068Z,75.51
2023-01-29T09:59:18.349Z,74.75
2023-01-29T10:01:55.739Z,74.83
2023-01-29T10:04:52.881Z,74.57
2023-01-29T10:07:45.381Z,74.78
2023-01-29T10:10:46.239Z,75.56
2023-01-29T10:13:49.057Z,75.84
2023-01-29T10:16:41.634Z,75.70
2023-01-29T10:19:12.011Z,75.84
2023-01-29T10:21:56.662Z,75.72
2023-01-29T10:24:36.343Z,75.06
2023-01-29T10:27:12.877Z,75.33
2023-01-29T10:29:43.655Z,74.96
2023-01-29T10:32:16.519Z,74.51
2023-01-29T10:34:56.741Z,73.72
2023-01-29T10:37:35.111Z,73.83
2023-01-29T10:40:07.295Z,74.32
2023-01-29T10:42:44.144Z,74.07
2023-01-29T10:45:30.349Z,74.27
2023-01-29T10:48:15.875Z,74.16
2023-01-29T10:51:00.233Z,74.47
2023-01-29T10:54:01.019Z,75.02
2023-01-29T10:56:36.397Z,74.58
2023-01-29T10:59:08.596Z,74.38
2023-01-29T11:01:36.294Z,73.85
2023-01-29T11:04:06.606Z,73.54
2023-01-29T11:06:35.692Z,73.38
2023-01-29T11:09:19.015Z,73.73
2023-01-29T11:11:50.775Z,73.04
2023-01-29T11:14:30.442Z,72.86
2023-01-29T11:16:58.023Z,72.52
2023-01-29T11:19:46.772Z,72.47
2023-01-29T11:22:22.805Z,72.39
2023-01-29T11:25:15.473Z,71.81
2023-01-29T11:27:52.941Z,71.70
2023-01-29T11:30:29.685Z,72.43
2023-01-29T11:33:19.162Z,71.46
2023-01-29T11:35:46.868Z,72.00
2023-01-29T11:38:23.417Z,72.54
2023-01-29T11:40:51.753Z,72.27
2023-01-29T11:43:31.176Z,72.76
2023-01-29T11:46:05.358Z,73.15
2023-01-29T11:48:43.397Z,73.32
2023-01-29T11:51:20.231Z,72.48
2023-01-29T11:54:01.236Z,72.55
2023-01-29T11:56:39.762Z,72.73
2023-01-29T11:59:37.367Z,72.52
2023-01-29T12:02:19.088Z,71.68
2023-01-29T12:04:47.836Z,71.97
2023-01-29T12:07:18.227Z,71.12
2023-01-29T12:09:52.602Z,70.06
2023-01-29T12:12:41.757Z,69.85
2023-01-29T12:15:20.053Z,70.55
2023-01-29T12:18:12.087Z,70.04
2023-01-29T12:20:45.626Z,69.78
2023-01-29T12:23:35.025Z,70.07
2023-01-29T12:26:13.073Z,70.01
2023-01-29T12:28:55.873Z,69.52
2023-01-29T12:31:45.912Z,69.78
2023-01-29T12:34:47.351Z,70.08
2023-01-29T12:37:40.924Z,69.41
2023-01-29T12:40:14.501Z,69.41
2023-01-29T12:42:46.897Z,69.42
2023-01-29T12:45:24.222Z,69.33
2023-01-29T12:47:57.664Z,69.04
2023-01-29T12:50:32.578Z,69.61
2023-01-29T12:53:06.531Z,69.71
2023-01-29T12:55:44.909Z,70.17
2023-01-29T12:58:17.749Z,70.76
2023-01-29T13:00:48.673Z,70.98
2023-01-29T13:03:38.569Z,71.04
2023-01-29T13:06:34.349Z,70.64
2023-01-29T13:09:07.497Z,70.06
2023-01-29T13:12:01.222Z,70.50
2023-01-29T13:14:31.894Z,70.26
2023-01-29T13:17:21.610Z,70.25
2023-01-29T13:19:57.530Z,70.63
2023-01-29T13:22:27.809Z,70.68
2023-01-29T13:25:04.620Z,70.27
2023-01-29T13:27:35.275Z,70.33
2023-01-29T13:30:04.006Z,71.52
2023-01-29T13:32:34.188Z,70.91
2023-01-29T13:35:12.011Z,71.38
2023-01-29T13:37:48.607Z,71.40
2023-01-29T13:40:26.051Z,71.36
2023-01-29T13:42:58.409Z,71.14
2023-01-29T13:45:42.240Z,71.12
2023-01-29T13:48:21.700Z,71.47
2023-01-29T13:50:51.743Z,71.35
2023-01-29T13:53:34.909Z,71.63
2023-01-29T13:56:36.500Z,71.74
2023-01-29T13:59:06.453Z,71.57
2023-01-29T14:01:50.290Z,72.04
2023-01-29T14:04:26.950Z,72.28
2023-01-29T14:06:56.901Z,72.51
2023-01-29T14:09:39.615Z,73.76
2023-01-29T14:12:22.377Z,74.43
2023-01-29T14:14:56.922Z,74.60
2023-01-29T14:17:27.061Z,74.20
2023-01-29T14:20:18.236Z,75.18
2023-01-29T14:22:56.552Z,74.99
2023-01-29T14:25:30.460Z,75.07
2023-01-29T14:28:00.393Z,74.66
2023-01-29T14:30:31.864Z,74.61
2023-01-29T14:32:59.794Z,74.14
2023-01-29T14:35:33.947Z,74.66
2023-01-29T14:38:06.267Z,74.49
2023-01-29T14:40:37.210Z,74.78
2023-01-29T14:43:22.886Z,75.30
2023-01-29T14:45:51.661Z,75.17
2023-01-29T14:48:37.594Z,75.15
2023-01-29T14:51:14.401Z,75.06
2023-01-29T14:53:53.429Z,75.11
2023-01-29T14:56:33.593Z,75.71
2023-01-29T14:59:29.443Z,75.67
2023-01-29T15:02:01.023Z,75.97
2023-01-29T15:04:30.921Z,76.44
2023-01-29T15:07:15.689Z,76.56
2023-01-29T15:09:48.695Z,77.39
2023-01-29T15:12:31.543Z,77.65
2023-01-29T15:15:14.295Z,77.54
2023-01-29T15:17:55.782Z,78.44
2023-01-29T15:20:31.761Z,78.43
2023-01-29T15:23:00.609Z,78.67
2023-01-29T15:25:37.486Z,78.75
2023-01-29T15:28:10.317Z,78.55
2023-01-29T15:30:39.283Z,78.30
2023-01-29T15:33:10.745Z,77.96
2023-01-29T15:35:41.016Z,78.17
2023-01-29T15:38:14.700Z,79.17
2023-01-29T15:40:51.092Z,79.64
2023-01-29T15:43:23.384Z,79.35
2023-01-29T15:45:53.800Z,79.68
2023-01-29T15:48:33.023Z,80.04
2023-01-29T15:51:01.458Z,80.37
2023-01-29T15:53:36.169Z,79.89
2023-01-29T15:56:10.126Z,79.55
2023-01-29T15:58:39.266Z,79.62
2023-01-29T16:01:07.248Z,81.04
2023-01-29T16:03:37.789Z,81.26
2023-01-29T16:06:07.250Z,81.18
2023-01-29T16:08:35.733Z,80.82
2023-01-29T16:11:06.522Z,79.86
2023-01-29T16:13:37.276Z,80.33
2023-01-29T16:16:19.218Z,80.38
2023-01-29T16:18:59.585Z,80.78
2023-01-29T16:21:41.030Z,81.52
2023-01-29T16:24:14.057Z,81.08
2023-01-29T16:26:50.812Z,81.24
2023-01-29T16:29:23.887Z,81.25
2023-01-29T16:31:54.665Z,82.75
2023-01-29T16:34:27.067Z,82.54
2023-01-29T16:36:55.606Z,81.98
2023-01-29T16:39:47.582Z,82.63
2023-01-29T16:42:20.198Z,83.09
2023-01-29T16:44:53.943Z,84.60
2023-01-29T16:47:34.843Z,84.63
2023-01-29T16:50:46.193Z,84.42
2023-01-29T16:53:23.465Z,85.56
2023-01-29T16:55:52.601Z,85.65
2023-01-29T16:58:23.019Z,85.88
2023-01-29T17:01:01.329Z,85.96
2023-01-29T17:03:33.254Z,85.08
2023-01-29T17:06:11.874Z,84.92
2023-01-29T17:08:42.753Z,84.51
2023-01-29T17:11:14.183Z,84.93
2023-01-29T17:13:45.416Z,85.29
2023-01-29T17:16:33.368Z,85.30
2023-01-29T17:19:15.111Z,85.23
2023-01-29T17:21:42.667Z,86.19
2023-01-29T17:24:09.928Z,86.33
2023-01-29T17:26:37.713Z,85.97
2023-01-29T17:29:05.181Z,85.29
2023-01-29T17:31:32.868Z,85.18
2023-01-29T17:34:00.483Z,85.81
2023-01-29T17:36:28.184Z,86.53
2023-01-29T17:38:55.583Z,85.40
2023-01-29T17:41:24.922Z,85.09
2023-01-29T17:43:52.298Z,84.71
2023-01-29T17:46:20.064Z,84.39
2023-01-29T17:48:49.340Z,85.46
2023-01-29T17:51:18.125Z,85.90
2023-01-29T17:53:46.888Z,85.44
2023-01-29T17:56:27.709Z,85.76
2023-01-29T17:58:55.395Z,87.07
2023-01-29T18:01:22.868Z,87.58
2023-01-29T18:03:50.357Z,86.88
2023-01-29T18:06:28.469Z,86.34
2023-01-29T18:08:56.776Z,85.85
2023-01-29T18:11:24.834Z,85.42
2023-01-29T18:13:52.689Z,85.34
2023-01-29T18:16:22.252Z,86.27
2023-01-29T18:18:51.056Z,87.25
2023-01-29T18:21:19.086Z,87.99
2023-01-29T18:23:46.669Z,89.00
2023-01-29T18:26:16.348Z,89.16
2023-01-29T18:28:43.876Z,88.84
2023-01-29T18:31:13.129Z,88.66
2023-01-29T18:33:41.480Z,88.39
2023-01-29T18:36:08.829Z,88.16
2023-01-29T18:38:36.217Z,87.84
2023-01-29T18:41:07.325Z,87.69
2023-01-29T18:43:34.840Z,88.32
2023-01-29T18:46:02.444Z,89.09
2023-01-29T18:48:31.174Z,89.22
2023-01-29T18:50:58.743Z,86.70
2023-01-29T18:53:26.546Z,86.95
2023-01-29T18:55:56.365Z,88.26
2023-01-29T18:58:29.172Z,89.03
2023-01-29T19:01:09.551Z,89.25
2023-01-29T19:03:38.823Z,87.70
2023-01-29T19:06:08.600Z,88.36
2023-01-29T19:08:36.197Z,88.32
2023-01-29T19:11:05.656Z,89.22
2023-01-29T19:13:33.124Z,89.54
2023-01-29T19:16:00.736Z,89.20
2023-01-29T19:18:29.073Z,89.52
2023-01-29T19:20:56.543Z,88.88
2023-01-29T19:23:23.868Z,89.37
2023-01-29T19:25:51.038Z,88.41
2023-01-29T19:28:18.337Z,87.41
2023-01-29T19:30:45.881Z,87.96
2023-01-29T19:33:13.333Z,87.23
2023-01-29T19:35:43.932Z,87.58
2023-01-29T19:38:11.477Z,88.68
2023-01-29T19:40:38.974Z,88.54
2023-01-29T19:43:06.577Z,87.93
2023-01-29T19:45:49.079Z,89.38
2023-01-29T19:48:22.058Z,90.13
2023-01-29T19:50:54.209Z,90.70
2023-01-29T19:53:22.881Z,90.61
2023-01-29T19:56:00.475Z,89.60
2023-01-29T19:58:28.715Z,90.00
2023-01-29T20:01:01.843Z,89.66
2023-01-29T20:03:29.708Z,89.03
2023-01-29T20:06:06.601Z,89.01
2023-01-29T20:08:35.265Z,89.43
2023-01-29T20:11:04.457Z,88.71
2023-01-29T20:13:33.056Z,89.86
2023-01-29T20:16:04.809Z,90.32
2023-01-29T20:18:32.996Z,91.16
2023-01-29T20:21:09.937Z,90.51
2023-01-29T20:23:39.484Z,89.92
2023-01-29T20:26:08.722Z,89.51
2023-01-29T20:28:36.777Z,89.28
2023-01-29T20:31:05.738Z,88.67
2023-01-29T20:33:34.837Z,89.10
2023-01-29T20:36:05.721Z,89.77
2023-01-29T20:38:34.640Z,90.20
2023-01-29T20:41:14.493Z,91.14
2023-01-29T20:43:42.961Z,91.32
2023-01-29T20:46:11.034Z,91.71
2023-01-29T20:48:39.518Z,91.23
2023-01-29T20:51:15.485Z,90.06
2023-01-29T20:53:47.929Z,90.28
2023-01-29T20:56:17.262Z,89.62
2023-01-29T20:58:46.942Z,89.59
2023-01-29T21:01:17.613Z,89.47
2023-01-29T21:03:48.602Z,89.98
2023-01-29T21:06:16.382Z,90.14
2023-01-29T21:08:43.857Z,90.28
2023-01-29T21:11:11.560Z,90.74
2023-01-29T21:13:38.970Z,91.28
2023-01-29T21:16:06.941Z,91.53
2023-01-29T21:18:34.402Z,91.97
2023-01-29T21:21:02.011Z,91.84
2023-01-29T21:23:29.689Z,92.28
2023-01-29T21:26:04.881Z,92.21
2023-01-29T21:28:33.205Z,91.26
2023-01-29T21:31:12.728Z,90.61
2023-01-29T21:33:42.036Z,89.20
2023-01-29T21:36:10.278Z,89.81
2023-01-29T21:38:38.006Z,89.30
2023-01-29T21:41:08.891Z,90.07
2023-01-29T21:43:37.389Z,91.07
2023-01-29T21:46:13.648Z,91.31
2023-01-29T21:48:41.475Z,90.91
2023-01-29T21:51:09.108Z,90.58
2023-01-29T21:53:36.898Z,91.20
2023-01-29T21:56:05.883Z,91.72
2023-01-29T21:58:36.697Z,91.85
2023-01-29T22:01:36.000Z,91.97
2023-01-29T22:03:54.279Z,90.83
2023-01-29T22:06:21.836Z,89.73
2023-01-29T22:08:50.132Z,90.01
2023-01-29T22:11:18.111Z,90.96
2023-01-29T22:13:45.654Z,90.77
2023-01-29T22:16:12.952Z,91.76
2023-01-29T22:18:40.393Z,90.74
2023-01-29T22:21:07.870Z,90.42
2023-01-29T22:23:35.333Z,91.05
2023-01-29T22:26:05.928Z,90.19
2023-01-29T22:28:33.530Z,89.21
2023-01-29T22:31:05.309Z,90.28
2023-01-29T22:33:33.624Z,90.86
2023-01-29T22:36:01.551Z,90.53
2023-01-29T22:38:29.384Z,92.64
2023-01-29T22:40:59.778Z,92.23
2023-01-29T22:43:27.418Z,92.36
2023-01-29T22:45:56.422Z,92.10
2023-01-29T22:48:24.181Z,92.12
2023-01-29T22:51:19.133Z,92.52
2023-01-29T22:53:52.302Z,92.72
2023-01-29T22:56:21.445Z,93.69
2023-01-29T22:58:54.086Z,95.46
2023-01-29T23:01:23.841Z,95.29
2023-01-29T23:03:51.637Z,95.70
2023-01-29T23:06:21.679Z,95.84
2023-01-29T23:08:50.215Z,96.05
2023-01-29T23:11:20.468Z,96.14
2023-01-29T23:13:51.071Z,95.32
2023-01-29T23:16:21.204Z,94.50
2023-01-29T23:18:53.658Z,94.96
2023-01-29T23:21:22.809Z,94.25
2023-01-29T23:23:52.372Z,93.68
2023-01-29T23:26:38.266Z,93.20
2023-01-29T23:29:05.935Z,93.68
2023-01-29T23:31:33.392Z,94.70
2023-01-29T23:34:00.726Z,96.44
2023-01-29T23:36:28.125Z,97.41
2023-01-29T23:38:55.556Z,98.45
2023-01-29T23:41:22.907Z,98.69
2023-01-29T23:43:50.373Z,99.84
2023-01-29T23:46:17.721Z,100.00
2023-01-29T23:48:45.101Z,100.00
2023-01-29T23:51:12.319Z,100.00
2023-01-29T23:53:39.892Z,100.00
2023-01-29T23:56:07.751Z,100.00
2023-01-29T23:58:35.288Z,100.00
